createdAt,value
2019-02-12T00:01:27.799Z,3.50
2019-02-12T00:03:58.774Z,3.50
2019-02-12T00:06:30.541Z,3.60
2019-02-12T00:08:59.663Z,3.50
2019-02-12T00:11:30.793Z,3.50
2019-02-12T00:14:00.043Z,3.40
2019-02-12T00:16:30.730Z,3.40
2019-02-12T00:18:58.667Z,3.30
2019-02-12T00:21:37.261Z,3.30
2019-02-12T00:24:02.928Z,3.30
2019-02-12T00:26:30.781Z,3.30
2019-02-12T00:29:02.145Z,3.30
2019-02-12T00:31:32.186Z,3.20
2019-02-12T00:34:00.476Z,3.20
2019-02-12T00:36:28.934Z,3.20
2019-02-12T00:38:59.422Z,3.20
2019-02-12T00:41:31.801Z,3.30
2019-02-12T00:44:00.048Z,3.30
2019-02-12T00:46:27.867Z,3.30
2019-02-12T00:48:56.405Z,3.30
2019-02-12T00:51:34.668Z,3.30
2019-02-12T00:54:24.352Z,3.40
2019-02-12T00:56:52.452Z,3.40
2019-02-12T00:59:20.989Z,3.40
2019-02-12T01:01:48.976Z,3.40
2019-02-12T01:04:19.511Z,3.40
2019-02-12T01:06:47.639Z,3.40
2019-02-12T01:09:16.142Z,3.50
2019-02-12T01:11:57.574Z,3.50
2019-02-12T01:14:25.699Z,3.50
2019-02-12T01:16:53.953Z,3.50
2019-02-12T01:19:22.203Z,3.50
2019-02-12T01:21:50.224Z,3.50
2019-02-12T01:24:23.707Z,3.50
2019-02-12T01:26:52.292Z,3.50
2019-02-12T01:29:20.396Z,3.50
2019-02-12T01:31:48.242Z,3.50
2019-02-12T01:34:15.966Z,3.50
2019-02-12T01:36:44.072Z,3.60
2019-02-12T01:39:12.829Z,3.60
2019-02-12T01:41:41.315Z,3.60
2019-02-12T01:44:09.647Z,3.70
2019-02-12T01:46:38.328Z,3.70
2019-02-12T01:49:06.152Z,3.70
2019-02-12T01:51:35.310Z,3.70
2019-02-12T01:54:03.311Z,3.70
2019-02-12T01:56:31.627Z,3.80
2019-02-12T01:58:59.749Z,3.80
2019-02-12T02:01:27.680Z,3.80
2019-02-12T02:03:55.547Z,3.80
2019-02-12T02:06:23.385Z,3.80
2019-02-12T02:08:51.558Z,3.80
2019-02-12T02:11:19.172Z,3.80
2019-02-12T02:13:47.169Z,3.80
2019-02-12T02:16:15.133Z,3.80
2019-02-12T02:18:43.232Z,3.80
2019-02-12T02:21:11.109Z,3.80
2019-02-12T02:23:39.082Z,3.80
2019-02-12T02:26:07.328Z,3.80
2019-02-12T02:28:35.365Z,3.80
2019-02-12T02:31:03.388Z,3.70
2019-02-12T02:33:31.289Z,3.70
2019-02-12T02:35:59.367Z,3.70
2019-02-12T02:38:27.555Z,3.60
2019-02-12T02:40:56.548Z,3.60
2019-02-12T02:43:24.955Z,3.60
2019-02-12T02:45:52.929Z,3.50
2019-02-12T02:48:20.605Z,3.50
2019-02-12T02:50:49.352Z,3.50
2019-02-12T02:53:18.818Z,3.50
2019-02-12T02:55:48.581Z,3.50
2019-02-12T02:58:20.885Z,3.50
2019-02-12T03:00:49.572Z,3.50
2019-02-12T03:03:18.246Z,3.50
2019-02-12T03:05:46.610Z,3.40
2019-02-12T03:08:15.137Z,3.40
2019-02-12T03:10:43.298Z,3.40
2019-02-12T03:13:11.726Z,3.30
2019-02-12T03:15:39.614Z,3.20
2019-02-12T03:18:10.084Z,3.20
2019-02-12T03:20:39.466Z,3.10
2019-02-12T03:26:38.246Z,3.00
2019-02-12T03:29:06.712Z,2.90
2019-02-12T03:31:34.837Z,2.80
2019-02-12T03:34:03.037Z,2.80
2019-02-12T03:36:31.216Z,2.80
2019-02-12T03:39:00.973Z,2.90
2019-02-12T03:41:29.176Z,2.90
2019-02-12T03:43:57.446Z,2.90
2019-02-12T03:46:25.654Z,3.00
2019-02-12T03:49:01.442Z,3.00
2019-02-12T03:51:36.966Z,3.00
2019-02-12T03:54:05.561Z,3.00
2019-02-12T03:56:34.034Z,3.00
2019-02-12T03:59:02.383Z,3.00
2019-02-12T04:01:31.026Z,3.10
2019-02-12T04:03:59.469Z,3.00
2019-02-12T04:06:27.432Z,3.00
2019-02-12T04:08:56.030Z,3.10
2019-02-12T04:11:24.381Z,3.10
2019-02-12T04:13:52.588Z,3.10
2019-02-12T04:16:20.635Z,3.10
2019-02-12T04:18:48.703Z,3.10
2019-02-12T04:21:16.683Z,3.20
2019-02-12T04:23:44.882Z,3.10
2019-02-12T04:26:13.088Z,3.20
2019-02-12T04:28:41.241Z,3.20
2019-02-12T04:31:09.598Z,3.20
2019-02-12T04:33:54.053Z,3.20
2019-02-12T04:36:13.824Z,3.20
2019-02-12T04:38:42.492Z,3.10
2019-02-12T04:41:10.725Z,3.10
2019-02-12T04:43:38.972Z,3.10
2019-02-12T04:46:15.754Z,3.10
2019-02-12T04:48:44.298Z,3.10
2019-02-12T04:51:27.306Z,3.10
2019-02-12T04:53:56.779Z,3.10
2019-02-12T04:56:24.598Z,3.10
2019-02-12T04:58:52.499Z,3.00
2019-02-12T05:01:20.156Z,3.00
2019-02-12T05:03:48.391Z,3.10
2019-02-12T05:12:11.323Z,3.10
2019-02-12T05:14:50.811Z,3.10
2019-02-12T05:17:50.681Z,3.10
2019-02-12T05:26:58.408Z,3.10
2019-02-12T05:29:27.207Z,3.00
2019-02-12T05:32:04.831Z,3.00
2019-02-12T05:34:43.762Z,3.00
2019-02-12T05:37:12.617Z,3.00
2019-02-12T05:39:49.913Z,3.00
2019-02-12T05:42:25.635Z,3.00
2019-02-12T05:45:33.680Z,3.00
2019-02-12T05:48:02.833Z,3.00
2019-02-12T05:50:40.037Z,3.10
2019-02-12T05:53:45.175Z,3.10
2019-02-12T05:56:36.160Z,3.20
2019-02-12T06:02:46.595Z,3.30
2019-02-12T06:11:33.947Z,3.40
2019-02-12T06:14:04.236Z,3.50
2019-02-12T06:17:04.329Z,3.50
2019-02-12T06:19:35.279Z,3.50
2019-02-12T06:22:03.930Z,3.50
2019-02-12T06:24:52.929Z,3.50
2019-02-12T06:27:25.415Z,3.50
2019-02-12T06:29:55.864Z,3.50
2019-02-12T06:32:45.247Z,3.50
2019-02-12T06:38:17.955Z,3.40
2019-02-12T06:40:46.936Z,3.40
2019-02-12T06:43:47.063Z,3.40
2019-02-12T06:46:19.709Z,3.40
2019-02-12T06:49:18.312Z,3.40
2019-02-12T06:52:19.663Z,3.40
2019-02-12T06:55:18.175Z,3.40
2019-02-12T06:58:06.498Z,3.40
2019-02-12T07:00:50.011Z,3.40
2019-02-12T07:03:22.036Z,3.40
2019-02-12T07:09:52.055Z,3.40
2019-02-12T07:12:47.610Z,3.50
2019-02-12T07:15:51.988Z,3.50
2019-02-12T07:19:00.029Z,3.60
2019-02-12T07:21:56.240Z,3.70
2019-02-12T07:24:57.902Z,3.80
2019-02-12T07:27:58.484Z,3.90
2019-02-12T07:31:24.024Z,4.00
2019-02-12T07:34:37.934Z,4.10
2019-02-12T07:37:37.599Z,4.20
2019-02-12T07:40:38.729Z,4.30
2019-02-12T07:43:57.165Z,4.30
2019-02-12T07:46:56.245Z,4.30
2019-02-12T07:49:53.923Z,4.40
2019-02-12T07:52:59.926Z,4.40
2019-02-12T07:56:00.763Z,4.50
2019-02-12T07:58:57.859Z,4.40
2019-02-12T08:02:24.525Z,4.40
2019-02-12T08:05:43.713Z,4.30
2019-02-12T08:16:27.278Z,4.40
2019-02-12T08:33:45.702Z,5.80
2019-02-12T08:37:31.913Z,5.30
2019-02-12T08:47:48.701Z,5.00
2019-02-12T08:50:56.823Z,5.00
2019-02-12T08:54:03.698Z,4.90
2019-02-12T08:57:04.924Z,4.90
2019-02-12T09:00:23.602Z,4.80
2019-02-12T09:09:57.988Z,5.00
2019-02-12T09:12:45.646Z,5.80
2019-02-12T09:16:40.054Z,7.80
2019-02-12T09:20:08.038Z,8.60
2019-02-12T09:23:35.607Z,9.30
2019-02-12T09:26:49.025Z,10.20
2019-02-12T09:30:06.564Z,10.50
2019-02-12T09:33:28.139Z,10.90
2019-02-12T09:36:25.806Z,11.40
2019-02-12T09:43:08.313Z,11.50
2019-02-12T09:46:31.698Z,11.60
2019-02-12T09:49:57.745Z,11.60
2019-02-12T09:53:10.967Z,12.40
2019-02-12T10:00:29.859Z,12.00
2019-02-12T10:17:14.571Z,10.50
2019-02-12T10:20:39.370Z,9.90
2019-02-12T10:24:19.919Z,9.60
2019-02-12T10:27:45.881Z,8.60
2019-02-12T10:37:58.591Z,7.90
2019-02-12T12:48:59.427Z,9.10
2019-02-12T13:07:07.577Z,8.40
2019-02-12T13:09:47.181Z,8.30
2019-02-12T13:16:09.615Z,8.30
2019-02-12T13:25:10.146Z,8.00
2019-02-12T13:29:15.020Z,8.00
2019-02-12T13:31:51.240Z,8.00
2019-02-12T13:37:45.875Z,8.00
2019-02-12T13:43:32.856Z,8.10
2019-02-12T13:46:25.240Z,8.10
2019-02-12T13:50:15.770Z,8.00
2019-02-12T13:53:03.989Z,7.90
2019-02-12T15:07:15.183Z,7.70
2019-02-12T15:09:46.695Z,7.60
2019-02-12T15:15:06.771Z,7.50
2019-02-12T15:17:35.023Z,7.50
2019-02-12T15:20:04.005Z,7.40
2019-02-12T15:22:35.742Z,7.30
2019-02-12T15:25:41.787Z,7.30
2019-02-12T15:28:15.605Z,7.30
2019-02-12T15:30:50.214Z,7.30
2019-02-12T15:42:54.040Z,7.30
2019-02-12T15:45:27.565Z,7.30
2019-02-12T15:47:56.530Z,7.30
2019-02-12T15:53:36.202Z,7.30
2019-02-12T15:56:13.310Z,7.30
2019-02-12T15:58:42.076Z,7.20
2019-02-12T16:01:15.556Z,7.20
2019-02-12T16:03:48.762Z,7.20
2019-02-12T16:06:36.072Z,7.20
2019-02-12T16:39:43.885Z,6.60
2019-02-12T16:42:18.099Z,6.60
2019-02-12T16:44:54.997Z,6.50
2019-02-12T16:47:24.698Z,6.40
2019-02-12T16:49:53.341Z,6.40
2019-02-12T16:52:21.850Z,6.30
2019-02-12T16:54:49.695Z,6.30
2019-02-12T17:03:06.923Z,6.20
2019-02-12T17:06:10.555Z,6.20
2019-02-12T17:08:34.816Z,6.20
2019-02-12T17:11:18.309Z,6.20
2019-02-12T17:13:49.315Z,6.20
2019-02-12T17:16:18.746Z,6.10
2019-02-12T17:18:48.253Z,6.10
2019-02-12T17:31:17.603Z,6.10
2019-02-12T17:34:04.572Z,6.10
2019-02-12T17:37:11.442Z,6.10
2019-02-12T17:40:06.363Z,6.10
2019-02-12T18:29:00.429Z,5.70
2019-02-12T18:32:00.634Z,5.70
2019-02-12T18:34:31.761Z,5.70
2019-02-12T18:37:24.943Z,5.60
2019-02-12T18:39:46.322Z,5.60
2019-02-12T18:42:18.668Z,5.60
2019-02-12T18:47:54.833Z,5.50
2019-02-12T18:50:35.048Z,5.50
2019-02-12T19:39:16.680Z,5.30
2019-02-12T19:59:27.042Z,5.50
2019-02-12T20:05:25.476Z,5.50
2019-02-12T20:24:46.296Z,5.60
2019-02-12T20:36:28.634Z,5.70
2019-02-12T20:39:31.001Z,5.80
2019-02-12T20:52:10.259Z,5.90
2019-02-12T20:54:41.940Z,5.90
2019-02-12T20:57:15.147Z,5.90
2019-02-12T20:59:43.223Z,5.90
2019-02-12T21:02:44.608Z,5.90
2019-02-12T21:05:06.114Z,5.90
2019-02-12T21:07:35.309Z,6.00
2019-02-12T21:10:24.441Z,6.00
2019-02-12T21:13:00.794Z,6.00
2019-02-12T21:15:30.247Z,6.00
2019-02-12T21:17:58.453Z,6.10
2019-02-12T21:20:27.242Z,6.00
2019-02-12T21:23:04.742Z,6.10
2019-02-12T21:26:08.332Z,6.10
2019-02-12T21:37:41.838Z,6.10
2019-02-12T21:40:32.625Z,6.10
2019-02-12T21:43:00.651Z,6.10
2019-02-12T21:45:31.304Z,6.00
2019-02-12T21:47:59.233Z,6.00
2019-02-12T21:50:27.748Z,6.00
2019-02-12T21:52:56.999Z,6.00
2019-02-12T21:55:28.296Z,5.90
2019-02-12T21:57:58.783Z,5.90
2019-02-12T22:00:27.392Z,5.90
2019-02-12T22:02:56.017Z,5.90
2019-02-12T22:05:24.704Z,5.80
2019-02-12T22:07:54.134Z,5.80
2019-02-12T22:10:22.290Z,5.80
2019-02-12T22:12:50.441Z,5.80
2019-02-12T22:15:18.846Z,5.80
2019-02-12T22:17:48.693Z,5.80
2019-02-12T22:20:17.302Z,5.80
2019-02-12T22:22:46.577Z,5.80
2019-02-12T22:25:14.460Z,5.80
2019-02-12T22:27:42.619Z,5.70
2019-02-12T22:30:15.793Z,5.70
2019-02-12T22:32:43.701Z,5.70
2019-02-12T22:35:12.070Z,5.70
2019-02-12T22:37:40.358Z,5.70
2019-02-12T22:40:08.974Z,5.70
2019-02-12T22:42:37.192Z,5.70
2019-02-12T22:45:07.021Z,5.70
2019-02-12T22:47:36.943Z,5.70
2019-02-12T22:50:05.629Z,5.70
2019-02-12T22:52:33.349Z,5.70
2019-02-12T22:55:04.163Z,5.80
2019-02-12T22:57:32.411Z,5.80
2019-02-12T23:00:02.339Z,5.80
2019-02-12T23:02:30.602Z,5.80
2019-02-12T23:04:59.041Z,5.80
2019-02-12T23:07:27.054Z,5.80
2019-02-12T23:09:54.939Z,5.90
2019-02-12T23:12:23.933Z,5.90
2019-02-12T23:14:52.098Z,5.90
2019-02-12T23:17:20.898Z,5.90
2019-02-12T23:19:49.636Z,5.90
2019-02-12T23:22:18.144Z,5.90
2019-02-12T23:24:46.582Z,5.90
2019-02-12T23:27:14.870Z,5.90
2019-02-12T23:29:43.119Z,5.90
2019-02-12T23:32:11.196Z,5.90
2019-02-12T23:34:39.260Z,5.90
2019-02-12T23:37:07.193Z,5.90
2019-02-12T23:39:35.584Z,5.90
2019-02-12T23:42:03.844Z,6.00
2019-02-12T23:44:32.171Z,5.90
2019-02-12T23:47:00.715Z,6.00
2019-02-12T23:49:28.772Z,6.00
2019-02-12T23:51:57.269Z,6.00
2019-02-12T23:57:16.705Z,6.00
2019-02-12T23:59:46.498Z,6.00
